Amsterdam, Ohio
Current Conditions -  °F | °C
As of 12:53 AM on Sunday 23 Nov 2014 (Local Time) from KHLG Reporting Station
Few Clouds Few Clouds  
Wind Chill: 10°   Ceiling: Unl
Heat Index: 10°   Visibility: 10mi
Dew Point: -3°   Wind: 9mph
Humidity: 39%   Direction: 220°SW
Pressure: 30.1"   Gusts: NA
Location:  40.47°N, 80.92°W
Report Text: KHLG 230553Z AUTO 22008KT 10SM FEW080 FEW095 10/M03 A3010 RMK AO2 SLP199 60000 T01001033 10111 20083 55002
Loading
Personal Weather Stations






























Interactive Weather Map New forecast layout! Learn more

10-Day Weather Forecast

Advertisements
Track Severe Weather on mobile